createdAt,value
2018-07-12T15:06:56.322Z,76.50
2018-07-12T15:09:24.973Z,77.30
2018-07-12T15:11:53.265Z,80.30
2018-07-12T15:14:21.748Z,79.20
2018-07-12T15:16:50.261Z,82.60
2018-07-12T15:19:18.780Z,81.40
2018-07-12T15:21:47.188Z,84.40
2018-07-12T15:24:15.681Z,83.90
2018-07-12T15:26:44.180Z,82.70
2018-07-12T15:29:12.708Z,84.00
2018-07-12T15:31:41.255Z,83.00
2018-07-12T15:34:09.669Z,83.30
2018-07-12T15:36:38.148Z,83.30
2018-07-12T15:39:07.392Z,81.90
2018-07-12T15:41:35.903Z,81.60
2018-07-12T15:44:04.458Z,82.30
2018-07-12T15:46:33.173Z,81.40
2018-07-12T15:49:01.613Z,83.00
2018-07-12T15:51:30.072Z,81.90
2018-07-12T15:53:58.562Z,81.00
2018-07-12T15:56:27.025Z,81.60
2018-07-12T15:58:55.522Z,83.20
2018-07-12T16:01:23.975Z,81.70
2018-07-12T16:03:52.505Z,80.70
2018-07-12T16:06:20.936Z,82.20
2018-07-12T16:08:49.426Z,80.10
2018-07-12T16:11:17.906Z,81.00
2018-07-12T16:13:46.396Z,82.30
2018-07-12T16:16:14.860Z,78.90
2018-07-12T16:18:43.296Z,80.00
2018-07-12T16:23:39.898Z,84.60
2018-07-12T16:26:08.457Z,83.10
2018-07-12T16:28:36.938Z,81.50
2018-07-12T16:31:05.422Z,80.70
2018-07-12T16:33:34.681Z,78.90
2018-07-12T16:38:31.268Z,76.00
2018-07-12T16:40:59.716Z,75.50
2018-07-12T16:43:28.232Z,74.80
2018-07-12T16:45:56.664Z,74.90
2018-07-12T16:48:25.122Z,75.00
2018-07-12T16:50:53.586Z,75.90
2018-07-12T16:53:22.285Z,76.50
2018-07-12T16:55:50.776Z,77.20
2018-07-12T16:58:19.248Z,77.50
2018-07-12T17:00:47.720Z,78.30
2018-07-12T17:03:16.192Z,77.50
2018-07-12T17:05:44.689Z,77.20
2018-07-12T17:08:14.417Z,76.70
2018-07-12T17:10:43.073Z,77.10
2018-07-12T17:13:20.155Z,76.30
2018-07-12T17:15:48.801Z,75.70
2018-07-12T17:18:18.294Z,75.30
2018-07-12T17:20:49.046Z,75.90
2018-07-12T17:23:17.582Z,76.70
2018-07-12T17:25:46.071Z,77.00
2018-07-12T17:28:14.512Z,77.80
2018-07-12T17:30:42.988Z,78.40
2018-07-12T17:33:11.496Z,78.50
2018-07-12T17:35:40.005Z,79.60
2018-07-12T17:38:08.514Z,79.10
2018-07-12T17:40:37.008Z,79.00
2018-07-12T17:43:05.551Z,78.60
2018-07-12T17:45:34.312Z,79.60
2018-07-12T17:48:02.925Z,79.70
2018-07-12T17:50:31.527Z,79.40
2018-07-12T17:52:59.998Z,79.40
2018-07-12T17:55:28.498Z,79.50
2018-07-12T17:57:57.868Z,79.10
2018-07-12T18:00:26.358Z,79.00
2018-07-12T18:02:54.899Z,79.30
2018-07-12T18:05:23.460Z,80.00
2018-07-12T18:07:52.256Z,80.40
2018-07-12T18:10:20.881Z,81.00
2018-07-12T18:12:49.776Z,81.30
2018-07-12T18:15:25.079Z,81.60
2018-07-12T18:17:53.630Z,82.10
2018-07-12T18:20:22.116Z,84.20
2018-07-12T18:22:50.616Z,85.60
2018-07-12T18:25:19.252Z,87.30
2018-07-12T18:27:47.743Z,87.90
2018-07-12T18:30:16.204Z,88.10
2018-07-12T18:32:44.663Z,90.00
2018-07-12T18:35:13.188Z,90.40
2018-07-12T18:37:41.649Z,90.70
2018-07-12T18:40:10.168Z,90.80
2018-07-12T18:42:38.625Z,90.70
2018-07-12T18:45:18.215Z,91.10
2018-07-12T18:47:46.945Z,91.30
2018-07-12T18:50:15.457Z,91.30
2018-07-12T18:52:43.923Z,91.30
2018-07-12T18:55:12.467Z,91.50
2018-07-12T18:57:40.944Z,91.70
2018-07-12T19:00:09.443Z,92.20
2018-07-12T19:02:38.431Z,92.40
2018-07-12T19:05:07.278Z,92.50
2018-07-12T19:07:36.748Z,92.80
2018-07-12T19:10:05.246Z,92.80
2018-07-12T19:12:33.715Z,93.00
2018-07-12T19:15:02.246Z,93.30
2018-07-12T19:17:30.824Z,93.70
2018-07-12T19:19:59.327Z,94.10
2018-07-12T19:22:27.828Z,94.40
2018-07-12T19:24:56.305Z,94.40
2018-07-12T19:27:24.828Z,94.50
2018-07-12T19:29:53.282Z,94.70
2018-07-12T19:32:21.768Z,94.90
2018-07-12T19:34:50.294Z,94.80
2018-07-12T19:37:18.787Z,94.60
2018-07-12T19:39:47.283Z,94.60
2018-07-12T19:42:15.826Z,94.80
2018-07-12T19:44:44.308Z,94.90
2018-07-12T19:47:12.855Z,94.50
2018-07-12T19:49:41.299Z,94.30
2018-07-12T19:52:09.796Z,94.40
2018-07-12T19:54:38.248Z,94.80
2018-07-12T19:57:06.714Z,95.00
2018-07-12T19:59:35.227Z,95.30
2018-07-12T20:02:03.776Z,95.80
2018-07-12T20:04:32.280Z,95.70
2018-07-12T20:07:00.735Z,95.90
2018-07-12T20:09:29.336Z,96.30
2018-07-12T20:11:57.817Z,96.50
2018-07-12T20:14:26.377Z,96.40
2018-07-12T20:16:54.812Z,96.10
2018-07-12T20:19:23.252Z,96.30
2018-07-12T20:21:51.723Z,96.70
2018-07-12T20:24:20.182Z,97.20
2018-07-12T20:26:48.638Z,97.70
2018-07-12T20:29:17.117Z,98.20
2018-07-12T20:34:13.773Z,98.60
2018-07-12T20:36:42.296Z,98.70
2018-07-12T20:39:10.776Z,97.10
2018-07-12T20:41:39.291Z,97.70
2018-07-12T20:44:07.768Z,97.40
2018-07-12T20:46:36.328Z,97.00
2018-07-12T20:49:04.813Z,96.80
2018-07-12T20:51:33.296Z,95.90
2018-07-12T20:54:01.797Z,93.80
2018-07-12T20:56:30.384Z,93.00
2018-07-12T20:58:58.884Z,92.50
2018-07-12T21:01:27.333Z,91.80
2018-07-12T21:03:55.836Z,92.00
2018-07-12T21:06:24.296Z,92.00
2018-07-12T21:08:52.747Z,92.20
2018-07-12T21:11:21.223Z,91.70
2018-07-12T21:13:49.711Z,91.90
2018-07-12T21:16:18.174Z,92.20
2018-07-12T21:18:46.700Z,91.40
2018-07-12T21:21:15.153Z,91.20
2018-07-12T21:23:43.722Z,91.00
2018-07-12T21:26:12.111Z,91.10
2018-07-12T21:28:40.606Z,91.10
2018-07-12T21:31:09.131Z,91.10
2018-07-12T21:33:37.692Z,91.10
2018-07-12T21:36:06.344Z,91.20
2018-07-12T21:38:34.776Z,91.30
2018-07-12T21:41:03.261Z,91.50
2018-07-12T21:43:31.752Z,91.50
2018-07-12T21:46:00.466Z,91.60
2018-07-12T21:48:28.948Z,91.80
2018-07-12T21:50:57.417Z,92.00
2018-07-12T21:53:25.978Z,92.00
2018-07-12T21:55:54.429Z,92.30
2018-07-12T21:58:23.073Z,92.40
2018-07-12T22:00:51.579Z,92.60
2018-07-12T22:03:20.240Z,92.70
2018-07-12T22:05:48.725Z,92.90
2018-07-12T22:08:22.021Z,93.30
2018-07-12T22:10:51.842Z,93.50
2018-07-12T22:13:21.175Z,93.60
2018-07-12T22:15:49.625Z,93.70
2018-07-12T22:20:46.257Z,94.00
2018-07-12T22:23:15.592Z,94.20
2018-07-12T22:25:44.044Z,94.30
2018-07-12T22:28:12.486Z,95.40
2018-07-12T22:30:41.045Z,95.60
2018-07-12T22:33:09.459Z,95.50
2018-07-12T22:35:37.924Z,95.80
2018-07-12T22:38:06.382Z,96.00
2018-07-12T22:40:34.848Z,96.20
2018-07-12T22:43:03.273Z,96.60
2018-07-12T22:45:31.721Z,96.70
2018-07-12T22:48:00.221Z,96.90
2018-07-12T22:50:28.617Z,97.10
2018-07-12T22:52:57.080Z,97.00
2018-07-12T22:55:25.512Z,97.70
2018-07-12T22:57:53.971Z,98.00
2018-07-12T23:00:22.453Z,98.40
2018-07-12T23:02:50.931Z,98.70
2018-07-12T23:05:19.417Z,98.90
2018-07-12T23:10:15.988Z,99.30
2018-07-12T23:12:44.444Z,99.60
2018-07-12T23:15:12.894Z,99.50
2018-07-12T23:17:41.353Z,99.50
2018-07-12T23:20:09.811Z,99.90
2018-07-12T23:22:39.282Z,99.90
2018-07-12T23:25:08.749Z,99.90
2018-07-12T23:27:37.184Z,99.90
2018-07-12T23:30:05.756Z,99.90
2018-07-12T23:32:34.188Z,99.90
2018-07-12T23:35:02.656Z,99.90
2018-07-12T23:37:31.104Z,99.90
2018-07-12T23:39:59.557Z,99.90
2018-07-12T23:42:27.996Z,99.90
2018-07-12T23:44:56.430Z,99.90
2018-07-12T23:47:24.876Z,99.90
2018-07-12T23:49:53.354Z,99.90
2018-07-12T23:52:21.819Z,99.90
2018-07-12T23:54:50.290Z,99.90
2018-07-12T23:57:18.764Z,99.90
2018-07-12T23:59:47.221Z,99.90
